createdAt,value
2018-11-04T00:00:54.835Z,102509.86
2018-11-04T00:04:00.814Z,102511.16
2018-11-04T00:07:06.786Z,102491.36
2018-11-04T00:10:12.638Z,102487.49
2018-11-04T00:13:18.751Z,102473.70
2018-11-04T00:16:24.226Z,102487.50
2018-11-04T00:19:29.634Z,102475.42
2018-11-04T00:22:35.142Z,102476.71
2018-11-04T00:25:40.498Z,102478.84
2018-11-04T00:28:45.862Z,102475.84
2018-11-04T00:31:51.346Z,102463.36
2018-11-04T00:34:56.762Z,102447.02
2018-11-04T00:38:02.149Z,102454.75
2018-11-04T00:41:07.886Z,102455.17
2018-11-04T00:44:13.239Z,102451.76
2018-11-04T00:47:18.780Z,102443.60
2018-11-04T00:50:24.130Z,102444.44
2018-11-04T00:53:29.612Z,102440.59
2018-11-04T00:56:35.024Z,102435.00
2018-11-04T00:59:40.466Z,102429.80
2018-11-04T01:02:47.058Z,102429.80
2018-11-04T01:05:52.402Z,102422.92
2018-11-04T01:08:57.794Z,102430.22
2018-11-04T01:12:03.659Z,102422.48
2018-11-04T01:15:11.187Z,102413.01
2018-11-04T01:18:16.558Z,102405.73
2018-11-04T01:21:21.958Z,102404.42
2018-11-04T01:24:27.992Z,102400.16
2018-11-04T01:27:33.558Z,102406.15
2018-11-04T01:30:39.594Z,102390.66
2018-11-04T01:33:44.995Z,102385.94
2018-11-04T01:36:50.546Z,102381.63
2018-11-04T01:39:55.962Z,102370.91
2018-11-04T01:43:01.358Z,102373.91
2018-11-04T01:46:06.914Z,102361.89
2018-11-04T01:49:12.609Z,102359.30
2018-11-04T01:52:18.077Z,102349.84
2018-11-04T01:55:23.418Z,102343.40
2018-11-04T01:58:28.884Z,102336.95
2018-11-04T02:01:34.330Z,102336.50
2018-11-04T02:04:39.706Z,102324.89
2018-11-04T02:07:45.054Z,102313.75
2018-11-04T02:10:50.406Z,102313.33
2018-11-04T02:13:55.851Z,102312.05
2018-11-04T02:17:01.186Z,102307.72
2018-11-04T02:20:08.002Z,102310.30
2018-11-04T02:23:13.401Z,102299.56
2018-11-04T02:26:18.754Z,102293.11
2018-11-04T02:29:24.093Z,102290.52
2018-11-04T02:32:29.611Z,102284.09
2018-11-04T02:35:35.591Z,102280.25
2018-11-04T02:38:41.086Z,102278.09
2018-11-04T02:41:46.554Z,102270.78
2018-11-04T02:44:51.945Z,102271.64
2018-11-04T02:47:57.305Z,102269.95
2018-11-04T02:51:02.659Z,102271.23
2018-11-04T02:54:08.011Z,102263.51
2018-11-04T02:57:13.339Z,102263.91
2018-11-04T03:00:18.741Z,102259.20
2018-11-04T03:03:24.178Z,102250.60
2018-11-04T03:06:29.526Z,102251.89
2018-11-04T03:09:34.900Z,102246.29
2018-11-04T03:12:40.510Z,102249.72
2018-11-04T03:15:45.849Z,102249.28
2018-11-04T03:18:51.218Z,102237.24
2018-11-04T03:21:56.673Z,102229.50
2018-11-04T03:25:02.046Z,102234.25
2018-11-04T03:28:09.323Z,102230.41
2018-11-04T03:31:14.714Z,102219.66
2018-11-04T03:34:20.082Z,102214.91
2018-11-04T03:37:25.447Z,102219.68
2018-11-04T03:40:30.836Z,102207.23
2018-11-04T03:43:36.325Z,102202.95
2018-11-04T03:46:41.719Z,102199.50
2018-11-04T03:49:47.077Z,102200.36
2018-11-04T03:52:52.575Z,102196.09
2018-11-04T03:55:57.916Z,102194.78
2018-11-04T03:59:03.710Z,102191.34
2018-11-04T04:02:09.320Z,102189.20
2018-11-04T04:05:14.670Z,102186.19
2018-11-04T04:08:20.286Z,102176.71
2018-11-04T04:11:25.739Z,102173.27
2018-11-04T04:14:31.085Z,102175.41
2018-11-04T04:17:36.435Z,102169.39
2018-11-04T04:20:41.811Z,102168.52
2018-11-04T04:23:47.312Z,102162.48
2018-11-04T04:26:52.657Z,102159.92
2018-11-04T04:29:58.669Z,102167.22
2018-11-04T04:33:04.093Z,102158.22
2018-11-04T04:36:09.441Z,102156.48
2018-11-04T04:39:14.792Z,102160.30
2018-11-04T04:42:20.222Z,102154.27
2018-11-04T04:45:25.571Z,102153.02
2018-11-04T04:48:31.282Z,102153.84
2018-11-04T04:51:36.634Z,102151.29
2018-11-04T04:54:44.124Z,102143.52
2018-11-04T04:57:49.455Z,102135.31
2018-11-04T05:00:55.714Z,102137.45
2018-11-04T05:04:01.077Z,102134.86
2018-11-04T05:07:06.998Z,102133.16
2018-11-04T05:10:12.687Z,102131.46
2018-11-04T05:13:18.110Z,102127.59
2018-11-04T05:16:23.487Z,102122.87
2018-11-04T05:19:28.898Z,102117.70
2018-11-04T05:22:34.387Z,102111.70
2018-11-04T05:25:39.759Z,102116.88
2018-11-04T05:28:45.139Z,102120.79
2018-11-04T05:31:50.690Z,102126.38
2018-11-04T05:34:56.133Z,102127.23
2018-11-04T05:38:01.591Z,102122.51
2018-11-04T05:41:07.442Z,102122.09
2018-11-04T05:44:12.798Z,102124.64
2018-11-04T05:47:18.166Z,102114.33
2018-11-04T05:50:24.212Z,102117.79
2018-11-04T05:53:29.669Z,102109.17
2018-11-04T05:56:35.187Z,102112.61
2018-11-04T05:59:40.553Z,102110.02
2018-11-04T06:02:47.059Z,102112.63
2018-11-04T06:05:52.434Z,102114.34
2018-11-04T06:08:57.798Z,102106.59
2018-11-04T06:12:03.410Z,102109.23
2018-11-04T06:15:09.551Z,102107.87
2018-11-04T06:18:15.484Z,102113.91
2018-11-04T06:21:20.976Z,102115.15
2018-11-04T06:24:26.366Z,102120.73
2018-11-04T06:27:31.734Z,102123.70
2018-11-04T06:30:37.098Z,102124.55
2018-11-04T06:33:42.985Z,102123.19
2018-11-04T06:36:48.378Z,102133.05
2018-11-04T06:39:53.748Z,102133.06
2018-11-04T06:42:59.242Z,102130.05
2018-11-04T06:46:04.614Z,102128.30
2018-11-04T06:49:10.026Z,102124.83
2018-11-04T06:52:15.472Z,102119.17
2018-11-04T06:55:20.818Z,102122.56
2018-11-04T06:58:26.335Z,102115.62
2018-11-04T07:01:31.971Z,102114.24
2018-11-04T07:04:37.348Z,102114.63
2018-11-04T07:07:43.167Z,102121.94
2018-11-04T07:10:48.509Z,102116.30
2018-11-04T07:13:53.895Z,102112.80
2018-11-04T07:16:59.238Z,102115.34
2018-11-04T07:20:05.266Z,102116.58
2018-11-04T07:23:10.874Z,102111.81
2018-11-04T07:26:16.206Z,102109.20
2018-11-04T07:29:21.566Z,102109.16
2018-11-04T07:32:27.044Z,102102.22
2018-11-04T07:35:34.499Z,102092.36
2018-11-04T07:38:39.845Z,102096.98
2018-11-04T07:41:45.282Z,102097.75
2018-11-04T07:44:50.653Z,102098.52
2018-11-04T07:47:56.015Z,102101.47
2018-11-04T07:51:01.354Z,102104.86
2018-11-04T07:54:07.310Z,102104.81
2018-11-04T07:57:14.856Z,102097.67
2018-11-04T08:00:20.239Z,102094.02
2018-11-04T08:03:25.802Z,102091.44
2018-11-04T08:06:31.329Z,102083.72
2018-11-04T08:09:36.678Z,102075.52
2018-11-04T08:12:42.126Z,102077.16
2018-11-04T08:15:47.472Z,102073.59
2018-11-04T08:18:52.834Z,102079.97
2018-11-04T08:21:58.250Z,102072.16
2018-11-04T08:25:03.610Z,102061.02
2018-11-04T08:28:09.397Z,102064.73
2018-11-04T08:31:14.830Z,102053.94
2018-11-04T08:34:20.378Z,102049.66
2018-11-04T08:37:26.336Z,102046.78
2018-11-04T08:40:31.765Z,102043.80
2018-11-04T08:43:37.373Z,102044.88
2018-11-04T08:46:42.966Z,102044.77
2018-11-04T08:49:48.367Z,102052.83
2018-11-04T08:52:53.762Z,102039.84
2018-11-04T08:55:59.113Z,102032.75
2018-11-04T08:59:04.470Z,102037.25
2018-11-04T09:02:09.925Z,102033.65
2018-11-04T09:05:15.283Z,102033.36
2018-11-04T09:08:21.000Z,102028.36
2018-11-04T09:11:26.472Z,102025.99
2018-11-04T09:14:31.830Z,102019.69
2018-11-04T09:17:37.170Z,102010.97
2018-11-04T09:20:42.692Z,102012.70
2018-11-04T09:23:48.302Z,102020.16
2018-11-04T09:26:55.854Z,102012.02
2018-11-04T09:30:01.251Z,102018.48
2018-11-04T09:33:07.170Z,102013.94
2018-11-04T09:36:12.683Z,102016.87
2018-11-04T09:39:18.203Z,102010.73
2018-11-04T09:42:23.649Z,102014.69
2018-11-04T09:45:29.046Z,102009.76
2018-11-04T09:48:34.469Z,102000.03
2018-11-04T09:51:40.259Z,102001.67
2018-11-04T09:54:45.944Z,101989.34
2018-11-04T09:57:51.329Z,101992.78
2018-11-04T10:00:56.768Z,101990.33
2018-11-04T10:04:02.162Z,101988.14
2018-11-04T10:07:08.244Z,101985.02
2018-11-04T10:10:15.310Z,101977.48
2018-11-04T10:13:20.906Z,101976.39
2018-11-04T10:16:27.281Z,101980.39
2018-11-04T10:19:32.989Z,101978.47
2018-11-04T10:22:38.546Z,101982.13
2018-11-04T10:25:43.930Z,101974.80
2018-11-04T10:28:49.298Z,101972.34
2018-11-04T10:31:58.602Z,101970.91
2018-11-04T10:35:04.015Z,101966.70
2018-11-04T10:38:09.369Z,101966.33
2018-11-04T10:41:15.004Z,101973.58
2018-11-04T10:44:20.374Z,101966.02
2018-11-04T10:47:26.097Z,101963.21
2018-11-04T10:50:31.470Z,101958.52
2018-11-04T10:53:37.749Z,101950.71
2018-11-04T10:56:45.307Z,101944.79
2018-11-04T10:59:51.048Z,101944.70
2018-11-04T11:02:56.499Z,101949.56
2018-11-04T11:06:02.037Z,101939.45
2018-11-04T11:09:10.066Z,101937.91
2018-11-04T11:12:17.273Z,101936.88
2018-11-04T11:15:22.676Z,101932.05
2018-11-04T11:18:28.418Z,101919.52
2018-11-04T11:21:33.909Z,101914.87
2018-11-04T11:24:39.349Z,101912.70
2018-11-04T11:27:44.763Z,101901.94
2018-11-04T11:30:50.534Z,101908.13
2018-11-04T11:33:58.436Z,101904.28
2018-11-04T11:37:06.162Z,101899.25
2018-11-04T11:40:11.955Z,101895.70
2018-11-04T11:43:17.461Z,101895.79
2018-11-04T11:46:22.894Z,101885.93
2018-11-04T11:49:28.296Z,101886.69
2018-11-04T11:52:33.942Z,101883.03
2018-11-04T11:55:41.805Z,101885.58
2018-11-04T11:58:47.267Z,101879.23
2018-11-04T12:01:52.746Z,101874.16
2018-11-04T12:04:58.137Z,101869.56
2018-11-04T12:08:03.557Z,101864.69
2018-11-04T12:11:08.983Z,101860.72
2018-11-04T12:14:14.381Z,101852.41
2018-11-04T12:17:19.818Z,101851.54
2018-11-04T12:20:25.770Z,101844.58
2018-11-04T12:23:31.623Z,101839.99
2018-11-04T12:26:37.222Z,101843.08
2018-11-04T12:29:43.143Z,101843.37
2018-11-04T12:32:48.569Z,101835.67
2018-11-04T12:35:54.524Z,101830.45
2018-11-04T12:38:59.930Z,101812.69
2018-11-04T12:42:05.671Z,101814.98
2018-11-04T12:45:12.450Z,101808.72
2018-11-04T12:48:18.297Z,101800.73
2018-11-04T12:51:23.717Z,101807.35
2018-11-04T12:54:29.110Z,101792.77
2018-11-04T12:57:35.052Z,101800.16
2018-11-04T13:00:40.488Z,101795.06
2018-11-04T13:03:45.937Z,101800.27
2018-11-04T13:06:51.387Z,101791.59
2018-11-04T13:09:56.885Z,101786.88
2018-11-04T13:13:02.515Z,101786.20
2018-11-04T13:16:08.078Z,101785.46
2018-11-04T13:19:13.485Z,101780.93
2018-11-04T13:22:18.937Z,101776.45
2018-11-04T13:25:24.408Z,101776.24
2018-11-04T13:28:30.460Z,101775.27
2018-11-04T13:31:36.146Z,101770.66
2018-11-04T13:34:41.880Z,101768.23
2018-11-04T13:37:49.710Z,101762.75
2018-11-04T13:40:55.583Z,101759.55
2018-11-04T13:44:01.019Z,101761.20
2018-11-04T13:47:06.539Z,101755.08
2018-11-04T13:50:14.505Z,101755.61
2018-11-04T13:53:19.925Z,101762.19
2018-11-04T13:56:25.400Z,101759.94
2018-11-04T13:59:30.826Z,101762.85
2018-11-04T14:02:36.780Z,101768.80
2018-11-04T14:05:42.739Z,101771.95
2018-11-04T14:08:48.884Z,101773.64
2018-11-04T14:11:54.321Z,101770.91
2018-11-04T14:14:59.756Z,101763.42
2018-11-04T14:18:05.707Z,101765.74
2018-11-04T14:21:11.110Z,101767.56
2018-11-04T14:24:16.509Z,101753.45
2018-11-04T14:27:21.970Z,101761.31
2018-11-04T14:30:27.338Z,101748.41
2018-11-04T14:33:32.781Z,101749.36
2018-11-04T14:36:38.746Z,101752.53
2018-11-04T14:39:44.313Z,101749.09
2018-11-04T14:42:49.744Z,101746.03
2018-11-04T14:45:55.354Z,101736.70
2018-11-04T14:49:01.527Z,101742.32
2018-11-04T14:52:06.937Z,101742.81
2018-11-04T14:55:12.810Z,101732.20
2018-11-04T14:58:18.246Z,101729.23
2018-11-04T15:01:23.796Z,101728.59
2018-11-04T15:04:29.333Z,101734.14
2018-11-04T15:07:34.854Z,101725.78
2018-11-04T15:10:40.318Z,101731.11
2018-11-04T15:13:45.723Z,101719.28
2018-11-04T15:16:51.178Z,101723.01
2018-11-04T15:19:56.741Z,101712.34
2018-11-04T15:23:02.421Z,101714.74
2018-11-04T15:26:08.900Z,101709.00
2018-11-04T15:29:14.288Z,101707.20
2018-11-04T15:32:19.722Z,101703.91
2018-11-04T15:35:25.641Z,101704.60
2018-11-04T15:38:31.063Z,101701.93
2018-11-04T15:41:36.491Z,101709.28
2018-11-04T15:44:41.892Z,101703.69
2018-11-04T15:47:47.363Z,101704.53
2018-11-04T15:50:53.114Z,101697.20
2018-11-04T15:53:58.575Z,101694.69
2018-11-04T15:57:09.323Z,101699.31
2018-11-04T16:00:15.710Z,101701.25
2018-11-04T16:03:21.150Z,101700.53
2018-11-04T16:06:26.574Z,101701.38
2018-11-04T16:09:31.989Z,101702.42
2018-11-04T16:12:48.480Z,101706.40
2018-11-04T16:16:03.800Z,101704.60
2018-11-04T16:19:23.053Z,101706.40
2018-11-04T16:22:28.459Z,101705.39
2018-11-04T16:25:33.943Z,101703.73
2018-11-04T16:28:39.556Z,101700.63
2018-11-04T16:31:45.036Z,101693.19
2018-11-04T16:34:50.446Z,101697.66
2018-11-04T16:37:55.881Z,101698.89
2018-11-04T16:41:01.494Z,101697.05
2018-11-04T16:44:07.706Z,101697.59
2018-11-04T16:47:13.146Z,101696.29
2018-11-04T16:50:18.582Z,101701.11
2018-11-04T16:53:24.095Z,101698.63
2018-11-04T16:56:31.304Z,101694.10
2018-11-04T16:59:36.774Z,101695.68
2018-11-04T17:02:43.969Z,101700.70
2018-11-04T17:05:51.564Z,101703.23
2018-11-04T17:08:57.160Z,101703.23
2018-11-04T17:12:02.622Z,101706.02
2018-11-04T17:15:11.422Z,101701.87
2018-11-04T17:18:16.938Z,101695.72
2018-11-04T17:21:22.898Z,101700.56
2018-11-04T17:24:30.062Z,101697.61
2018-11-04T17:27:35.527Z,101704.72
2018-11-04T17:30:40.936Z,101706.23
2018-11-04T17:33:46.422Z,101701.20
2018-11-04T17:36:51.826Z,101699.55
2018-11-04T17:39:57.540Z,101699.30
2018-11-04T17:43:03.038Z,101691.22
2018-11-04T17:46:08.586Z,101680.74
2018-11-04T17:49:13.999Z,101681.55
2018-11-04T17:52:19.475Z,101680.32
2018-11-04T17:55:24.887Z,101673.22
2018-11-04T17:58:30.272Z,101671.95
2018-11-04T18:01:35.750Z,101673.89
2018-11-04T18:04:41.156Z,101674.20
2018-11-04T18:07:47.267Z,101680.47
2018-11-04T18:10:52.676Z,101683.70
2018-11-04T18:13:58.172Z,101684.26
2018-11-04T18:17:03.694Z,101683.05
2018-11-04T18:20:10.782Z,101685.66
2018-11-04T18:23:16.214Z,101675.65
2018-11-04T18:26:21.764Z,101681.70
2018-11-04T18:29:27.330Z,101686.23
2018-11-04T18:32:32.794Z,101682.11
2018-11-04T18:35:38.286Z,101682.19
2018-11-04T18:38:43.666Z,101676.92
2018-11-04T18:41:49.139Z,101670.70
2018-11-04T18:44:54.611Z,101678.49
2018-11-04T18:48:00.513Z,101672.69
2018-11-04T18:51:06.542Z,101681.52
2018-11-04T18:54:13.227Z,101682.50
2018-11-04T18:57:18.679Z,101682.50
2018-11-04T19:00:24.210Z,101679.79
2018-11-04T19:03:31.785Z,101685.42
2018-11-04T19:06:37.287Z,101668.61
2018-11-04T19:09:43.004Z,101675.61
2018-11-04T19:12:48.505Z,101671.60
2018-11-04T19:15:53.955Z,101670.89
2018-11-04T19:18:59.456Z,101670.78
2018-11-04T19:22:05.314Z,101675.95
2018-11-04T19:25:12.398Z,101680.20
2018-11-04T19:28:17.910Z,101673.00
2018-11-04T19:31:24.135Z,101675.81
2018-11-04T19:34:29.597Z,101672.54
2018-11-04T19:37:35.037Z,101668.70
2018-11-04T19:40:40.508Z,101664.63
2018-11-04T19:43:46.037Z,101658.89
2018-11-04T19:46:51.689Z,101660.81
2018-11-04T19:49:57.065Z,101662.59
2018-11-04T19:53:03.050Z,101661.60
2018-11-04T19:56:08.894Z,101665.17
2018-11-04T19:59:14.318Z,101658.17
2018-11-04T20:02:20.034Z,101659.58
2018-11-04T20:05:25.564Z,101649.27
2018-11-04T20:08:31.418Z,101647.98
2018-11-04T20:11:36.919Z,101642.69
2018-11-04T20:14:42.346Z,101636.48
2018-11-04T20:17:48.659Z,101640.59
2018-11-04T20:20:54.499Z,101642.77
2018-11-04T20:24:02.898Z,101647.19
2018-11-04T20:27:08.322Z,101648.45
2018-11-04T20:30:14.365Z,101643.00
2018-11-04T20:33:19.829Z,101641.25
2018-11-04T20:36:25.949Z,101641.73
2018-11-04T20:39:36.606Z,101638.70
2018-11-04T20:42:42.131Z,101639.48
2018-11-04T20:45:47.511Z,101637.94
2018-11-04T20:48:58.067Z,101634.23
2018-11-04T20:52:03.603Z,101637.70
2018-11-04T20:55:09.206Z,101627.88
2018-11-04T20:58:14.737Z,101621.72
2018-11-04T21:01:20.925Z,101621.19
2018-11-04T21:04:26.313Z,101621.47
2018-11-04T21:07:31.714Z,101616.61
2018-11-04T21:10:37.097Z,101615.68
2018-11-04T21:13:42.529Z,101611.58
2018-11-04T21:16:48.125Z,101608.39
2018-11-04T21:19:53.549Z,101606.64
2018-11-04T21:22:58.969Z,101613.23
2018-11-04T21:26:04.431Z,101600.20
2018-11-04T21:29:10.043Z,101593.48
2018-11-04T21:32:15.549Z,101593.45
2018-11-04T21:35:20.928Z,101590.26
2018-11-04T21:38:26.402Z,101588.61
2018-11-04T21:41:31.875Z,101578.50
2018-11-04T21:44:37.358Z,101576.49
2018-11-04T21:47:43.304Z,101579.59
2018-11-04T21:50:48.816Z,101574.59
2018-11-04T21:53:54.482Z,101582.88
2018-11-04T21:56:59.903Z,101575.84
2018-11-04T22:00:08.306Z,101568.58
2018-11-04T22:03:13.991Z,101563.99
2018-11-04T22:06:19.462Z,101563.98
2018-11-04T22:09:24.871Z,101552.48
2018-11-04T22:12:30.909Z,101552.02
2018-11-04T22:15:36.818Z,101545.63
2018-11-04T22:18:42.253Z,101548.56
2018-11-04T22:21:47.865Z,101542.33
2018-11-04T22:24:53.285Z,101551.53
2018-11-04T22:27:58.714Z,101536.61
2018-11-04T22:31:04.203Z,101539.67
2018-11-04T22:34:10.139Z,101542.99
2018-11-04T22:37:15.667Z,101536.08
2018-11-04T22:40:21.078Z,101529.00
2018-11-04T22:43:26.598Z,101534.05
2018-11-04T22:46:32.008Z,101528.20
2018-11-04T22:49:37.422Z,101534.00
2018-11-04T22:52:43.318Z,101541.46
2018-11-04T22:55:48.746Z,101533.94
2018-11-04T22:58:54.370Z,101525.25
2018-11-04T23:01:59.943Z,101525.87
2018-11-04T23:05:11.647Z,101529.50
2018-11-04T23:08:17.077Z,101529.73
2018-11-04T23:11:22.668Z,101528.23
2018-11-04T23:14:28.066Z,101524.34
2018-11-04T23:17:33.437Z,101525.09
2018-11-04T23:20:38.845Z,101522.08
2018-11-04T23:23:44.286Z,101522.27
2018-11-04T23:26:49.677Z,101515.35
2018-11-04T23:29:55.247Z,101519.98
2018-11-04T23:33:00.714Z,101511.10
2018-11-04T23:36:06.471Z,101509.50
2018-11-04T23:39:11.930Z,101510.87
2018-11-04T23:42:17.297Z,101505.83
2018-11-04T23:45:22.694Z,101506.09
2018-11-04T23:48:28.137Z,101502.88
2018-11-04T23:51:33.850Z,101504.48
2018-11-04T23:54:39.246Z,101500.66
2018-11-04T23:57:44.655Z,101504.06
